PWSweather.com
Personal Weather Stations
Station Observations

SasamonSasamonES 09123

Lat: 42.4180252, Lon: -4.0413679

Elevation: 2706.692

Station Type: PCE-FWS 20

http://www.mipaginapersonal.movistar.es/web3/meteosasamon/index.htm

High Low Average
Temperature 61.7°F16.5°C 45.1°F7.3°C 51.8°F11.0°C
Dew Point 38.6°F3.7°C 27.6°F-2.4°C 32.3°F0.2°C
Winds 14.9 mph 24.0 kmh 0.4 mph 0.6 kmh 4.0 mph SSE6.4 kmh SSE
Wind Gusts 28.2 mph45.4 kmh 3.1 mph5.0 kmh 9.0 mph14.5 kmh
Humidity 78% 38% 50%
Pressure 29.98 in1015.2 mb 29.86 in1011.2 mb -
Precipitation 0.00 in0.0 mm - -
Hour Temp Dew Point Humidity Winds Wind Gusts Pressure Precip Precip Rate Daily Precip Total
12:02 AM 54.5°F12.5°C 28.7°F-1.8°C 39% 8.4 mph E13.5 kmh E 13.6 mph21.9 kmh 29.98 in1015.2 mb 0.00 in0.0 mm 0.00 in/hr0.0 mm/hr 0.00 in0.0 mm
12:13 AM 53.8°F12.1°C 28.1°F-2.2°C 39% 8.3 mph E13.4 kmh E 12.1 mph19.5 kmh 29.98 in1015.2 mb 0.00 in0.0 mm 0.00 in/hr0.0 mm/hr 0.00 in0.0 mm
12:24 AM 53.4°F11.9°C 27.7°F-2.4°C 39% 8.4 mph E13.5 kmh E 13.0 mph20.9 kmh 29.98 in1015.2 mb 0.00 in0.0 mm 0.00 in/hr0.0 mm/hr 0.00 in0.0 mm
12:35 AM 53.2°F11.8°C 27.6°F-2.4°C 39% 7.6 mph E12.2 kmh E 14.5 mph23.3 kmh 29.97 in1014.9 mb 0.00 in0.0 mm 0.00 in/hr0.0 mm/hr 0.00 in0.0 mm
12:46 AM 52.9°F11.6°C 28.0°F-2.2°C 40% 5.7 mph E9.2 kmh E 12.1 mph19.5 kmh 29.97 in1014.9 mb 0.00 in0.0 mm 0.00 in/hr0.0 mm/hr 0.00 in0.0 mm
12:57 AM 52.9°F11.6°C 28.0°F-2.2°C 40% 5.4 mph E8.7 kmh E 11.4 mph18.3 kmh 29.98 in1015.2 mb 0.00 in0.0 mm 0.00 in/hr0.0 mm/hr 0.00 in0.0 mm
01:08 AM 52.2°F11.2°C 28.0°F-2.2°C 41% 3.2 mph E5.1 kmh E 7.6 mph12.2 kmh 29.98 in1015.2 mb 0.00 in0.0 mm 0.00 in/hr0.0 mm/hr 0.00 in0.0 mm
01:19 AM 52.0°F11.1°C 27.8°F-2.3°C 41% 0.8 mph N1.3 kmh N 3.1 mph5.0 kmh 29.97 in1014.9 mb 0.00 in0.0 mm 0.00 in/hr0.0 mm/hr 0.00 in0.0 mm
01:30 AM 53.2°F11.8°C 27.6°F-2.4°C 39% 3.1 mph NNE5.0 kmh NNE 10.7 mph17.2 kmh 29.97 in1014.9 mb 0.00 in0.0 mm 0.00 in/hr0.0 mm/hr 0.00 in0.0 mm
01:41 AM 52.7°F11.5°C 27.8°F-2.3°C 40% 2.6 mph NE4.2 kmh NE 6.0 mph9.7 kmh 29.97 in1014.9 mb 0.00 in0.0 mm 0.00 in/hr0.0 mm/hr 0.00 in0.0 mm
01:52 AM 52.2°F11.2°C 28.0°F-2.2°C 41% 2.8 mph NNE4.5 kmh NNE 6.0 mph9.7 kmh 29.97 in1014.9 mb 0.00 in0.0 mm 0.00 in/hr0.0 mm/hr 0.00 in0.0 mm
02:03 AM 52.5°F11.4°C 28.3°F-2.1°C 41% 3.8 mph ENE6.1 kmh ENE 7.6 mph12.2 kmh 29.97 in1014.9 mb 0.00 in0.0 mm 0.00 in/hr0.0 mm/hr 0.00 in0.0 mm
02:14 AM 52.7°F11.5°C 28.5°F-1.9°C 41% 4.6 mph E7.4 kmh E 7.6 mph12.2 kmh 29.97 in1014.9 mb 0.00 in0.0 mm 0.00 in/hr0.0 mm/hr 0.00 in0.0 mm
02:25 AM 51.6°F10.9°C 28.2°F-2.1°C 42% 2.9 mph ENE4.7 kmh ENE 6.0 mph9.7 kmh 29.96 in1014.6 mb 0.00 in0.0 mm 0.00 in/hr0.0 mm/hr 0.00 in0.0 mm
02:36 AM 50.4°F10.2°C 28.9°F-1.7°C 45% 2.0 mph E3.2 kmh E 5.4 mph8.7 kmh 29.96 in1014.6 mb 0.00 in0.0 mm 0.00 in/hr0.0 mm/hr 0.00 in0.0 mm
02:47 AM 50.4°F10.2°C 28.9°F-1.7°C 45% 1.9 mph NE3.1 kmh NE 6.9 mph11.1 kmh 29.96 in1014.6 mb 0.00 in0.0 mm 0.00 in/hr0.0 mm/hr 0.00 in0.0 mm
02:58 AM 50.7°F10.4°C 28.6°F-1.9°C 44% 4.6 mph N7.4 kmh N 10.7 mph17.2 kmh 29.95 in1014.2 mb 0.00 in0.0 mm 0.00 in/hr0.0 mm/hr 0.00 in0.0 mm
03:09 AM 51.6°F10.9°C 28.2°F-2.1°C 42% 4.2 mph N6.8 kmh N 9.2 mph14.8 kmh 29.96 in1014.6 mb 0.00 in0.0 mm 0.00 in/hr0.0 mm/hr 0.00 in0.0 mm
03:20 AM 51.3°F10.7°C 28.5°F-1.9°C 43% 2.7 mph N4.3 kmh N 6.9 mph11.1 kmh 29.95 in1014.2 mb 0.00 in0.0 mm 0.00 in/hr0.0 mm/hr 0.00 in0.0 mm
03:31 AM 50.5°F10.3°C 29.1°F-1.6°C 45% 0.8 mph NE1.3 kmh NE 6.0 mph9.7 kmh 29.95 in1014.2 mb 0.00 in0.0 mm 0.00 in/hr0.0 mm/hr 0.00 in0.0 mm
03:42 AM 50.0°F10.0°C 29.2°F-1.6°C 46% 0.4 mph NNW0.6 kmh NNW 3.1 mph5.0 kmh 29.95 in1014.2 mb 0.00 in0.0 mm 0.00 in/hr0.0 mm/hr 0.00 in0.0 mm
03:53 AM 50.0°F10.0°C 29.2°F-1.6°C 46% 0.9 mph E1.4 kmh E 3.8 mph6.1 kmh 29.94 in1013.9 mb 0.00 in0.0 mm 0.00 in/hr0.0 mm/hr 0.00 in0.0 mm
04:04 AM 49.8°F9.9°C 29.6°F-1.3°C 47% 1.2 mph E1.9 kmh E 6.0 mph9.7 kmh 29.94 in1013.9 mb 0.00 in0.0 mm 0.00 in/hr0.0 mm/hr 0.00 in0.0 mm
04:15 AM 49.3°F9.6°C 29.7°F-1.3°C 48% 0.9 mph NNE1.4 kmh NNE 3.8 mph6.1 kmh 29.94 in1013.9 mb 0.00 in0.0 mm 0.00 in/hr0.0 mm/hr 0.00 in0.0 mm
04:26 AM 49.3°F9.6°C 29.7°F-1.3°C 48% 2.2 mph N3.5 kmh N 6.0 mph9.7 kmh 29.94 in1013.9 mb 0.00 in0.0 mm 0.00 in/hr0.0 mm/hr 0.00 in0.0 mm
04:37 AM 49.1°F9.5°C 29.5°F-1.4°C 48% 0.9 mph NNW1.4 kmh NNW 3.8 mph6.1 kmh 29.94 in1013.9 mb 0.00 in0.0 mm 0.00 in/hr0.0 mm/hr 0.00 in0.0 mm
04:48 AM 48.9°F9.4°C 29.9°F-1.2°C 49% 1.7 mph NNE2.7 kmh NNE 4.5 mph7.2 kmh 29.94 in1013.9 mb 0.00 in0.0 mm 0.00 in/hr0.0 mm/hr 0.00 in0.0 mm
04:59 AM 48.2°F9.0°C 29.8°F-1.2°C 50% 1.7 mph NE2.7 kmh NE 9.8 mph15.8 kmh 29.93 in1013.5 mb 0.00 in0.0 mm 0.00 in/hr0.0 mm/hr 0.00 in0.0 mm
05:10 AM 48.2°F9.0°C 29.8°F-1.2°C 50% 2.3 mph NW3.7 kmh NW 7.6 mph12.2 kmh 29.94 in1013.9 mb 0.00 in0.0 mm 0.00 in/hr0.0 mm/hr 0.00 in0.0 mm
05:21 AM 48.2°F9.0°C 29.2°F-1.6°C 49% 1.1 mph NE1.8 kmh NE 6.0 mph9.7 kmh 29.94 in1013.9 mb 0.00 in0.0 mm 0.00 in/hr0.0 mm/hr 0.00 in0.0 mm
05:32 AM 48.2°F9.0°C 29.2°F-1.6°C 49% 0.8 mph SW1.3 kmh SW 4.5 mph7.2 kmh 29.94 in1013.9 mb 0.00 in0.0 mm 0.00 in/hr0.0 mm/hr 0.00 in0.0 mm
05:43 AM 48.4°F9.1°C 28.8°F-1.8°C 48% 0.7 mph WSW1.1 kmh WSW 3.8 mph6.1 kmh 29.93 in1013.5 mb 0.00 in0.0 mm 0.00 in/hr0.0 mm/hr 0.00 in0.0 mm
05:54 AM 48.4°F9.1°C 28.8°F-1.8°C 48% 0.5 mph WSW0.8 kmh WSW 3.1 mph5.0 kmh 29.94 in1013.9 mb 0.00 in0.0 mm 0.00 in/hr0.0 mm/hr 0.00 in0.0 mm
06:05 AM 48.6°F9.2°C 29.0°F-1.7°C 48% 1.6 mph S2.6 kmh S 3.8 mph6.1 kmh 29.94 in1013.9 mb 0.00 in0.0 mm 0.00 in/hr0.0 mm/hr 0.00 in0.0 mm
06:16 AM 48.6°F9.2°C 28.5°F-1.9°C 47% 1.1 mph SSE1.8 kmh SSE 3.8 mph6.1 kmh 29.93 in1013.5 mb 0.00 in0.0 mm 0.00 in/hr0.0 mm/hr 0.00 in0.0 mm
06:27 AM 48.0°F8.9°C 28.5°F-1.9°C 48% 0.4 mph ENE0.6 kmh ENE 3.1 mph5.0 kmh 29.93 in1013.5 mb 0.00 in0.0 mm 0.00 in/hr0.0 mm/hr 0.00 in0.0 mm
06:38 AM 47.7°F8.7°C 28.2°F-2.1°C 48% 0.5 mph NW0.8 kmh NW 3.1 mph5.0 kmh 29.93 in1013.5 mb 0.00 in0.0 mm 0.00 in/hr0.0 mm/hr 0.00 in0.0 mm
06:49 AM 47.7°F8.7°C 28.2°F-2.1°C 48% 1.0 mph S1.6 kmh S 3.1 mph5.0 kmh 29.93 in1013.5 mb 0.00 in0.0 mm 0.00 in/hr0.0 mm/hr 0.00 in0.0 mm
07:00 AM 47.3°F8.5°C 27.9°F-2.3°C 48% 1.1 mph SSW1.8 kmh SSW 3.8 mph6.1 kmh 29.93 in1013.5 mb 0.00 in0.0 mm 0.00 in/hr0.0 mm/hr 0.00 in0.0 mm
07:11 AM 47.5°F8.6°C 28.0°F-2.2°C 48% 0.7 mph SSW1.1 kmh SSW 4.5 mph7.2 kmh 29.94 in1013.9 mb 0.00 in0.0 mm 0.00 in/hr0.0 mm/hr 0.00 in0.0 mm
07:22 AM 46.2°F7.9°C 28.0°F-2.2°C 50% 1.8 mph SE2.9 kmh SE 6.0 mph9.7 kmh 29.93 in1013.5 mb 0.00 in0.0 mm 0.00 in/hr0.0 mm/hr 0.00 in0.0 mm
07:33 AM 46.0°F7.8°C 27.8°F-2.3°C 50% 1.5 mph ESE2.4 kmh ESE 4.5 mph7.2 kmh 29.94 in1013.9 mb 0.00 in0.0 mm 0.00 in/hr0.0 mm/hr 0.00 in0.0 mm
07:44 AM 45.7°F7.6°C 28.0°F-2.2°C 51% 1.6 mph SSW2.6 kmh SSW 3.8 mph6.1 kmh 29.94 in1013.9 mb 0.00 in0.0 mm 0.00 in/hr0.0 mm/hr 0.00 in0.0 mm
07:55 AM 45.3°F7.4°C 28.2°F-2.1°C 52% 1.6 mph SW2.6 kmh SW 4.5 mph7.2 kmh 29.94 in1013.9 mb 0.00 in0.0 mm 0.00 in/hr0.0 mm/hr 0.00 in0.0 mm
08:06 AM 45.3°F7.4°C 28.2°F-2.1°C 52% 0.5 mph SE0.8 kmh SE 4.5 mph7.2 kmh 29.95 in1014.2 mb 0.00 in0.0 mm 0.00 in/hr0.0 mm/hr 0.00 in0.0 mm
08:17 AM 45.3°F7.4°C 29.2°F-1.6°C 54% 2.8 mph S4.5 kmh S 5.4 mph8.7 kmh 29.95 in1014.2 mb 0.00 in0.0 mm 0.00 in/hr0.0 mm/hr 0.00 in0.0 mm
08:28 AM 45.3°F7.4°C 29.2°F-1.6°C 54% 3.1 mph SSE5.0 kmh SSE 6.0 mph9.7 kmh 29.95 in1014.2 mb 0.00 in0.0 mm 0.00 in/hr0.0 mm/hr 0.00 in0.0 mm
08:39 AM 45.5°F7.5°C 29.3°F-1.5°C 54% 2.7 mph SSE4.3 kmh SSE 5.4 mph8.7 kmh 29.95 in1014.2 mb 0.00 in0.0 mm 0.00 in/hr0.0 mm/hr 0.00 in0.0 mm
08:50 AM 45.3°F7.4°C 31.0°F-0.6°C 58% 2.6 mph SE4.2 kmh SE 6.0 mph9.7 kmh 29.96 in1014.6 mb 0.00 in0.0 mm 0.00 in/hr0.0 mm/hr 0.00 in0.0 mm
09:01 AM 46.0°F7.8°C 31.7°F-0.2°C 58% 2.2 mph SE3.5 kmh SE 4.5 mph7.2 kmh 29.96 in1014.6 mb 0.00 in0.0 mm 0.00 in/hr0.0 mm/hr 0.00 in0.0 mm
09:12 AM 47.3°F8.5°C 32.4°F0.2°C 57% 1.7 mph SE2.7 kmh SE 4.5 mph7.2 kmh 29.96 in1014.6 mb 0.00 in0.0 mm 0.00 in/hr0.0 mm/hr 0.00 in0.0 mm
09:23 AM 48.4°F9.1°C 32.0°F0.0°C 54% 1.7 mph E2.7 kmh E 5.4 mph8.7 kmh 29.96 in1014.6 mb 0.00 in0.0 mm 0.00 in/hr0.0 mm/hr 0.00 in0.0 mm
09:34 AM 49.3°F9.6°C 31.3°F-0.4°C 51% 1.7 mph E2.7 kmh E 5.4 mph8.7 kmh 29.96 in1014.6 mb 0.00 in0.0 mm 0.00 in/hr0.0 mm/hr 0.00 in0.0 mm
09:45 AM 50.0°F10.0°C 31.4°F-0.3°C 50% 2.8 mph ESE4.5 kmh ESE 6.9 mph11.1 kmh 29.96 in1014.6 mb 0.00 in0.0 mm 0.00 in/hr0.0 mm/hr 0.00 in0.0 mm
09:56 AM 50.4°F10.2°C 31.7°F-0.2°C 50% 4.3 mph E6.9 kmh E 7.6 mph12.2 kmh 29.96 in1014.6 mb 0.00 in0.0 mm 0.00 in/hr0.0 mm/hr 0.00 in0.0 mm
10:07 AM 50.5°F10.3°C 32.4°F0.2°C 51% 4.6 mph ESE7.4 kmh ESE 8.3 mph13.4 kmh 29.95 in1014.2 mb 0.00 in0.0 mm 0.00 in/hr0.0 mm/hr 0.00 in0.0 mm
10:18 AM 50.7°F10.4°C 32.1°F0.1°C 50% 3.7 mph E6.0 kmh E 9.2 mph14.8 kmh 29.95 in1014.2 mb 0.00 in0.0 mm 0.00 in/hr0.0 mm/hr 0.00 in0.0 mm
10:29 AM 51.1°F10.6°C 32.4°F0.2°C 50% 4.2 mph E6.8 kmh E 8.3 mph13.4 kmh 29.95 in1014.2 mb 0.00 in0.0 mm 0.00 in/hr0.0 mm/hr 0.00 in0.0 mm
10:40 AM 51.8°F11.0°C 30.2°F-1.0°C 45% 5.4 mph SE8.7 kmh SE 12.1 mph19.5 kmh 29.96 in1014.6 mb 0.00 in0.0 mm 0.00 in/hr0.0 mm/hr 0.00 in0.0 mm
10:51 AM 51.8°F11.0°C 30.8°F-0.7°C 46% 6.2 mph SE10.0 kmh SE 11.4 mph18.3 kmh 29.95 in1014.2 mb 0.00 in0.0 mm 0.00 in/hr0.0 mm/hr 0.00 in0.0 mm
11:02 AM 51.8°F11.0°C 30.8°F-0.7°C 46% 6.7 mph SSE10.8 kmh SSE 12.1 mph19.5 kmh 29.95 in1014.2 mb 0.00 in0.0 mm 0.00 in/hr0.0 mm/hr 0.00 in0.0 mm
11:13 AM 52.3°F11.3°C 31.9°F-0.1°C 47% 6.3 mph S10.1 kmh S 11.4 mph18.3 kmh 29.95 in1014.2 mb 0.00 in0.0 mm 0.00 in/hr0.0 mm/hr 0.00 in0.0 mm
11:24 AM 52.2°F11.2°C 30.5°F-0.8°C 45% 7.2 mph S11.6 kmh S 13.6 mph21.9 kmh 29.95 in1014.2 mb 0.00 in0.0 mm 0.00 in/hr0.0 mm/hr 0.00 in0.0 mm
11:35 AM 51.8°F11.0°C 30.8°F-0.7°C 46% 7.5 mph S12.1 kmh S 13.0 mph20.9 kmh 29.95 in1014.2 mb 0.00 in0.0 mm 0.00 in/hr0.0 mm/hr 0.00 in0.0 mm
11:46 AM 51.6°F10.9°C 31.2°F-0.4°C 47% 7.6 mph S12.2 kmh S 12.1 mph19.5 kmh 29.95 in1014.2 mb 0.00 in0.0 mm 0.00 in/hr0.0 mm/hr 0.00 in0.0 mm
11:57 AM 51.8°F11.0°C 31.9°F-0.1°C 48% 6.2 mph SSE10.0 kmh SSE 10.7 mph17.2 kmh 29.95 in1014.2 mb 0.00 in0.0 mm 0.00 in/hr0.0 mm/hr 0.00 in0.0 mm
12:08 PM 51.6°F10.9°C 31.8°F-0.1°C 48% 7.0 mph S11.3 kmh S 10.7 mph17.2 kmh 29.95 in1014.2 mb 0.00 in0.0 mm 0.00 in/hr0.0 mm/hr 0.00 in0.0 mm
12:19 PM 51.6°F10.9°C 32.3°F0.2°C 49% 4.9 mph S7.9 kmh S 9.2 mph14.8 kmh 29.96 in1014.6 mb 0.00 in0.0 mm 0.00 in/hr0.0 mm/hr 0.00 in0.0 mm
12:30 PM 51.6°F10.9°C 32.3°F0.2°C 49% 6.6 mph S10.6 kmh S 9.8 mph15.8 kmh 29.95 in1014.2 mb 0.00 in0.0 mm 0.00 in/hr0.0 mm/hr 0.00 in0.0 mm
12:41 PM 51.8°F11.0°C 31.9°F-0.1°C 48% 6.3 mph S10.1 kmh S 10.7 mph17.2 kmh 29.95 in1014.2 mb 0.00 in0.0 mm 0.00 in/hr0.0 mm/hr 0.00 in0.0 mm
12:52 PM 52.2°F11.2°C 32.3°F0.2°C 48% 4.5 mph S7.2 kmh S 9.2 mph14.8 kmh 29.95 in1014.2 mb 0.00 in0.0 mm 0.00 in/hr0.0 mm/hr 0.00 in0.0 mm
01:03 PM 52.2°F11.2°C 32.3°F0.2°C 48% 3.3 mph SW5.3 kmh SW 6.0 mph9.7 kmh 29.95 in1014.2 mb 0.00 in0.0 mm 0.00 in/hr0.0 mm/hr 0.00 in0.0 mm
01:14 PM 52.3°F11.3°C 32.4°F0.2°C 48% 3.7 mph S6.0 kmh S 6.0 mph9.7 kmh 29.94 in1013.9 mb 0.00 in0.0 mm 0.00 in/hr0.0 mm/hr 0.00 in0.0 mm
01:25 PM 53.2°F11.8°C 33.2°F0.7°C 48% 2.1 mph SE3.4 kmh SE 5.4 mph8.7 kmh 29.93 in1013.5 mb 0.00 in0.0 mm 0.00 in/hr0.0 mm/hr 0.00 in0.0 mm
01:36 PM 54.0°F12.2°C 33.9°F1.1°C 48% 1.7 mph ENE2.7 kmh ENE 6.0 mph9.7 kmh 29.92 in1013.2 mb 0.00 in0.0 mm 0.00 in/hr0.0 mm/hr 0.00 in0.0 mm
01:47 PM 54.7°F12.6°C 33.4°F0.8°C 46% 2.3 mph NE3.7 kmh NE 6.9 mph11.1 kmh 29.92 in1013.2 mb 0.00 in0.0 mm 0.00 in/hr0.0 mm/hr 0.00 in0.0 mm
01:58 PM 55.8°F13.2°C 34.4°F1.3°C 46% 1.8 mph N2.9 kmh N 6.9 mph11.1 kmh 29.92 in1013.2 mb 0.00 in0.0 mm 0.00 in/hr0.0 mm/hr 0.00 in0.0 mm
02:09 PM 57.4°F14.1°C 34.6°F1.4°C 44% 2.7 mph NE4.3 kmh NE 4.5 mph7.2 kmh 29.92 in1013.2 mb 0.00 in0.0 mm 0.00 in/hr0.0 mm/hr 0.00 in0.0 mm
02:20 PM 57.2°F14.0°C 34.4°F1.3°C 44% 1.5 mph W2.4 kmh W 4.5 mph7.2 kmh 29.91 in1012.9 mb 0.00 in0.0 mm 0.00 in/hr0.0 mm/hr 0.00 in0.0 mm
02:31 PM 57.9°F14.4°C 34.4°F1.3°C 43% 1.9 mph WSW3.1 kmh WSW 6.0 mph9.7 kmh 29.91 in1012.9 mb 0.00 in0.0 mm 0.00 in/hr0.0 mm/hr 0.00 in0.0 mm
02:42 PM 58.6°F14.8°C 33.0°F0.6°C 40% 3.3 mph SW5.3 kmh SW 6.9 mph11.1 kmh 29.91 in1012.9 mb 0.00 in0.0 mm 0.00 in/hr0.0 mm/hr 0.00 in0.0 mm
02:53 PM 59.2°F15.1°C 33.5°F0.8°C 40% 5.0 mph SSW8.0 kmh SSW 10.7 mph17.2 kmh 29.91 in1012.9 mb 0.00 in0.0 mm 0.00 in/hr0.0 mm/hr 0.00 in0.0 mm
03:04 PM 59.0°F15.0°C 33.4°F0.8°C 40% 6.1 mph WSW9.8 kmh WSW 10.7 mph17.2 kmh 29.90 in1012.5 mb 0.00 in0.0 mm 0.00 in/hr0.0 mm/hr 0.00 in0.0 mm
03:15 PM 58.8°F14.9°C 33.2°F0.7°C 40% 5.8 mph WSW9.3 kmh WSW 12.1 mph19.5 kmh 29.90 in1012.5 mb 0.00 in0.0 mm 0.00 in/hr0.0 mm/hr 0.00 in0.0 mm
03:26 PM 58.1°F14.5°C 33.9°F1.1°C 42% 4.9 mph WSW7.9 kmh WSW 13.0 mph20.9 kmh 29.89 in1012.2 mb 0.00 in0.0 mm 0.00 in/hr0.0 mm/hr 0.00 in0.0 mm
03:37 PM 58.1°F14.5°C 34.6°F1.4°C 43% 3.3 mph SW5.3 kmh SW 7.6 mph12.2 kmh 29.89 in1012.2 mb 0.00 in0.0 mm 0.00 in/hr0.0 mm/hr 0.00 in0.0 mm
03:48 PM 58.8°F14.9°C 34.6°F1.4°C 42% 3.8 mph SW6.1 kmh SW 9.2 mph14.8 kmh 29.88 in1011.9 mb 0.00 in0.0 mm 0.00 in/hr0.0 mm/hr 0.00 in0.0 mm
03:59 PM 60.4°F15.8°C 33.9°F1.1°C 39% 4.5 mph SW7.2 kmh SW 13.0 mph20.9 kmh 29.88 in1011.9 mb 0.00 in0.0 mm 0.00 in/hr0.0 mm/hr 0.00 in0.0 mm
04:10 PM 61.0°F16.1°C 33.6°F0.9°C 38% 5.9 mph WSW9.5 kmh WSW 14.5 mph23.3 kmh 29.88 in1011.9 mb 0.00 in0.0 mm 0.00 in/hr0.0 mm/hr 0.00 in0.0 mm
04:21 PM 61.3°F16.3°C 34.0°F1.1°C 38% 6.6 mph SW10.6 kmh SW 13.6 mph21.9 kmh 29.88 in1011.9 mb 0.00 in0.0 mm 0.00 in/hr0.0 mm/hr 0.00 in0.0 mm
04:32 PM 61.5°F16.4°C 34.9°F1.6°C 39% 7.1 mph WSW11.4 kmh WSW 16.8 mph27.0 kmh 29.87 in1011.5 mb 0.00 in0.0 mm 0.00 in/hr0.0 mm/hr 0.00 in0.0 mm
04:43 PM 61.5°F16.4°C 34.1°F1.2°C 38% 6.0 mph S9.7 kmh S 13.6 mph21.9 kmh 29.87 in1011.5 mb 0.00 in0.0 mm 0.00 in/hr0.0 mm/hr 0.00 in0.0 mm
04:54 PM 61.5°F16.4°C 34.1°F1.2°C 38% 5.9 mph SW9.5 kmh SW 12.1 mph19.5 kmh 29.86 in1011.2 mb 0.00 in0.0 mm 0.00 in/hr0.0 mm/hr 0.00 in0.0 mm
05:05 PM 61.3°F16.3°C 34.0°F1.1°C 38% 7.2 mph WNW11.6 kmh WNW 13.0 mph20.9 kmh 29.86 in1011.2 mb 0.00 in0.0 mm 0.00 in/hr0.0 mm/hr 0.00 in0.0 mm
05:16 PM 61.7°F16.5°C 35.0°F1.7°C 39% 5.5 mph SW8.9 kmh SW 12.1 mph19.5 kmh 29.86 in1011.2 mb 0.00 in0.0 mm 0.00 in/hr0.0 mm/hr 0.00 in0.0 mm
05:27 PM 61.2°F16.2°C 34.5°F1.4°C 39% 4.6 mph W7.4 kmh W 9.8 mph15.8 kmh 29.86 in1011.2 mb 0.00 in0.0 mm 0.00 in/hr0.0 mm/hr 0.00 in0.0 mm
05:38 PM 61.5°F16.4°C 34.9°F1.6°C 39% 3.8 mph SW6.1 kmh SW 7.6 mph12.2 kmh 29.86 in1011.2 mb 0.00 in0.0 mm 0.00 in/hr0.0 mm/hr 0.00 in0.0 mm
05:49 PM 61.5°F16.4°C 34.9°F1.6°C 39% 3.6 mph SW5.8 kmh SW 9.2 mph14.8 kmh 29.86 in1011.2 mb 0.00 in0.0 mm 0.00 in/hr0.0 mm/hr 0.00 in0.0 mm
06:00 PM 61.3°F16.3°C 34.7°F1.5°C 39% 5.1 mph SW8.2 kmh SW 11.4 mph18.3 kmh 29.86 in1011.2 mb 0.00 in0.0 mm 0.00 in/hr0.0 mm/hr 0.00 in0.0 mm
06:11 PM 60.8°F16.0°C 33.5°F0.8°C 38% 4.6 mph SSW7.4 kmh SSW 11.4 mph18.3 kmh 29.86 in1011.2 mb 0.00 in0.0 mm 0.00 in/hr0.0 mm/hr 0.00 in0.0 mm
06:22 PM 60.4°F15.8°C 33.2°F0.7°C 38% 5.4 mph SSW8.7 kmh SSW 9.2 mph14.8 kmh 29.87 in1011.5 mb 0.00 in0.0 mm 0.00 in/hr0.0 mm/hr 0.00 in0.0 mm
06:33 PM 59.9°F15.5°C 33.4°F0.8°C 39% 4.6 mph SSW7.4 kmh SSW 9.2 mph14.8 kmh 29.88 in1011.9 mb 0.00 in0.0 mm 0.00 in/hr0.0 mm/hr 0.00 in0.0 mm
06:44 PM 59.4°F15.2°C 34.4°F1.3°C 41% 3.8 mph S6.1 kmh S 8.3 mph13.4 kmh 29.88 in1011.9 mb 0.00 in0.0 mm 0.00 in/hr0.0 mm/hr 0.00 in0.0 mm
06:55 PM 59.0°F15.0°C 34.7°F1.5°C 42% 4.3 mph S6.9 kmh S 8.3 mph13.4 kmh 29.89 in1012.2 mb 0.00 in0.0 mm 0.00 in/hr0.0 mm/hr 0.00 in0.0 mm
07:06 PM 59.0°F15.0°C 34.7°F1.5°C 42% 4.4 mph S7.1 kmh S 7.6 mph12.2 kmh 29.90 in1012.5 mb 0.00 in0.0 mm 0.00 in/hr0.0 mm/hr 0.00 in0.0 mm
07:17 PM 52.0°F11.1°C 36.8°F2.7°C 57% 14.9 mph SE24.0 kmh SE 27.3 mph43.9 kmh 29.91 in1012.9 mb 0.00 in0.0 mm 0.00 in/hr0.0 mm/hr 0.00 in0.0 mm
07:28 PM 52.0°F11.1°C 36.3°F2.4°C 56% 12.7 mph S20.4 kmh S 28.2 mph45.4 kmh 29.91 in1012.9 mb 0.00 in0.0 mm 0.00 in/hr0.0 mm/hr 0.00 in0.0 mm
07:39 PM 51.6°F10.9°C 35.9°F2.2°C 56% 14.4 mph SSE23.2 kmh SSE 25.1 mph40.4 kmh 29.91 in1012.9 mb 0.00 in0.0 mm 0.00 in/hr0.0 mm/hr 0.00 in0.0 mm
07:50 PM 51.3°F10.7°C 36.1°F2.3°C 57% 13.5 mph SSE21.7 kmh SSE 25.9 mph41.7 kmh 29.92 in1013.2 mb 0.00 in0.0 mm 0.00 in/hr0.0 mm/hr 0.00 in0.0 mm
08:01 PM 50.5°F10.3°C 36.4°F2.4°C 59% 12.3 mph SE19.8 kmh SE 22.1 mph35.6 kmh 29.92 in1013.2 mb 0.00 in0.0 mm 0.00 in/hr0.0 mm/hr 0.00 in0.0 mm
08:12 PM 50.0°F10.0°C 37.2°F2.9°C 62% 12.2 mph S19.6 kmh S 19.0 mph30.6 kmh 29.92 in1013.2 mb 0.00 in0.0 mm 0.00 in/hr0.0 mm/hr 0.00 in0.0 mm
08:23 PM 49.3°F9.6°C 37.4°F3.0°C 64% 10.6 mph SE17.1 kmh SE 21.3 mph34.3 kmh 29.93 in1013.5 mb 0.00 in0.0 mm 0.00 in/hr0.0 mm/hr 0.00 in0.0 mm
08:34 PM 48.7°F9.3°C 37.7°F3.2°C 66% 9.7 mph S15.6 kmh S 18.3 mph29.5 kmh 29.94 in1013.9 mb 0.00 in0.0 mm 0.00 in/hr0.0 mm/hr 0.00 in0.0 mm
08:45 PM 48.2°F9.0°C 37.9°F3.3°C 68% 9.6 mph S15.4 kmh S 17.4 mph28.0 kmh 29.95 in1014.2 mb 0.00 in0.0 mm 0.00 in/hr0.0 mm/hr 0.00 in0.0 mm
08:56 PM 47.8°F8.8°C 37.6°F3.1°C 68% 5.8 mph SSE9.3 kmh SSE 13.0 mph20.9 kmh 29.95 in1014.2 mb 0.00 in0.0 mm 0.00 in/hr0.0 mm/hr 0.00 in0.0 mm
09:07 PM 47.7°F8.7°C 37.8°F3.2°C 69% 5.0 mph SSE8.0 kmh SSE 7.6 mph12.2 kmh 29.94 in1013.9 mb 0.00 in0.0 mm 0.00 in/hr0.0 mm/hr 0.00 in0.0 mm
09:18 PM 47.3°F8.5°C 37.9°F3.3°C 70% 3.8 mph SE6.1 kmh SE 7.6 mph12.2 kmh 29.94 in1013.9 mb 0.00 in0.0 mm 0.00 in/hr0.0 mm/hr 0.00 in0.0 mm
09:29 PM 47.1°F8.4°C 38.1°F3.4°C 71% 4.7 mph SSE7.6 kmh SSE 8.3 mph13.4 kmh 29.94 in1013.9 mb 0.00 in0.0 mm 0.00 in/hr0.0 mm/hr 0.00 in0.0 mm
09:40 PM 46.8°F8.2°C 37.7°F3.2°C 71% 4.7 mph S7.6 kmh S 8.3 mph13.4 kmh 29.95 in1014.2 mb 0.00 in0.0 mm 0.00 in/hr0.0 mm/hr 0.00 in0.0 mm
09:51 PM 46.6°F8.1°C 37.9°F3.3°C 72% 4.8 mph SSE7.7 kmh SSE 8.3 mph13.4 kmh 29.95 in1014.2 mb 0.00 in0.0 mm 0.00 in/hr0.0 mm/hr 0.00 in0.0 mm
10:02 PM 46.2°F7.9°C 37.6°F3.1°C 72% 4.5 mph S7.2 kmh S 7.6 mph12.2 kmh 29.96 in1014.6 mb 0.00 in0.0 mm 0.00 in/hr0.0 mm/hr 0.00 in0.0 mm
10:13 PM 46.2°F7.9°C 37.9°F3.3°C 73% 3.2 mph S5.1 kmh S 6.0 mph9.7 kmh 29.96 in1014.6 mb 0.00 in0.0 mm 0.00 in/hr0.0 mm/hr 0.00 in0.0 mm
10:24 PM 46.8°F8.2°C 38.1°F3.4°C 72% 3.2 mph SSE5.1 kmh SSE 6.9 mph11.1 kmh 29.96 in1014.6 mb 0.00 in0.0 mm 0.00 in/hr0.0 mm/hr 0.00 in0.0 mm
10:35 PM 47.1°F8.4°C 38.4°F3.6°C 72% 3.3 mph SSE5.3 kmh SSE 8.3 mph13.4 kmh 29.96 in1014.6 mb 0.00 in0.0 mm 0.00 in/hr0.0 mm/hr 0.00 in0.0 mm
10:46 PM 47.3°F8.5°C 38.2°F3.4°C 71% 4.2 mph SE6.8 kmh SE 9.8 mph15.8 kmh 29.96 in1014.6 mb 0.00 in0.0 mm 0.00 in/hr0.0 mm/hr 0.00 in0.0 mm
10:57 PM 46.9°F8.3°C 38.3°F3.5°C 72% 4.1 mph S6.6 kmh S 8.3 mph13.4 kmh 29.95 in1014.2 mb 0.00 in0.0 mm 0.00 in/hr0.0 mm/hr 0.00 in0.0 mm
11:08 PM 46.8°F8.2°C 38.5°F3.6°C 73% 5.2 mph S8.4 kmh S 7.6 mph12.2 kmh 29.95 in1014.2 mb 0.00 in0.0 mm 0.00 in/hr0.0 mm/hr 0.00 in0.0 mm
11:19 PM 46.2°F7.9°C 38.3°F3.5°C 74% 4.3 mph S6.9 kmh S 7.6 mph12.2 kmh 29.94 in1013.9 mb 0.00 in0.0 mm 0.00 in/hr0.0 mm/hr 0.00 in0.0 mm
11:30 PM 45.9°F7.7°C 38.3°F3.5°C 75% 4.4 mph S7.1 kmh S 6.9 mph11.1 kmh 29.94 in1013.9 mb 0.00 in0.0 mm 0.00 in/hr0.0 mm/hr 0.00 in0.0 mm
11:41 PM 45.3°F7.4°C 38.5°F3.6°C 77% 4.8 mph S7.7 kmh S 7.6 mph12.2 kmh 29.94 in1013.9 mb 0.00 in0.0 mm 0.00 in/hr0.0 mm/hr 0.00 in0.0 mm
11:52 PM 45.1°F7.3°C 38.6°F3.7°C 78% 3.2 mph SE5.1 kmh SE 6.9 mph11.1 kmh 29.93 in1013.5 mb 0.00 in0.0 mm 0.00 in/hr0.0 mm/hr 0.00 in0.0 mm